Time;durP1;ratioP1;P1;durP2;ratioP2;P2;SDS_P1;SDS_P2;PMS_P1;PMS_P2;Temp;Humidity;BMP_temperature;BMP_pressure;BME280_temperature;BME280_humidity;BME280_pressure;Samples;Min_cycle;Max_cycle;Signal;HPM_P1;HPM_P2
2023/01/31 00:02:04;;;;;;;7.47;2.53;;;4.20;99.90;;;-141.84;74.52;19090.38;5045653;28;20231;-67
2023/01/31 00:04:32;;;;;;;11.73;2.03;;;4.20;99.90;;;-141.84;74.33;19061.94;5072319;28;20251;-68
2023/01/31 00:07:00;;;;;;;11.07;3.00;;;4.20;99.90;;;-141.84;73.85;19057.88;5072467;28;20232;-68
2023/01/31 00:09:29;;;;;;;8.23;2.33;;;4.20;99.90;;;-141.84;72.92;19090.38;5059833;28;20224;-68
2023/01/31 00:11:57;;;;;;;9.97;2.17;;;4.20;99.90;;;-141.84;72.73;19096.47;5032960;28;20757;-68
2023/01/31 00:14:25;;;;;;;7.10;1.80;;;4.20;99.90;;;-141.84;71.43;19096.47;5032456;28;20217;-69
2023/01/31 00:16:53;;;;;;;8.57;2.00;;;4.30;99.90;;;-141.84;71.58;19082.25;5032306;28;20236;-68
2023/01/31 00:19:23;;;;;;;6.43;2.00;;;4.30;99.90;;;-141.84;71.97;19104.59;5032558;28;20235;-68
2023/01/31 00:21:51;;;;;;;8.93;2.10;;;4.40;99.90;;;-141.84;72.13;19102.56;5032112;28;20716;-69
2023/01/31 00:24:19;;;;;;;8.70;2.23;;;4.40;99.90;;;-141.84;72.48;19120.88;5032393;28;20237;-67
2023/01/31 00:26:55;;;;;;;5.43;2.47;;;4.30;99.90;;;-141.84;72.34;19100.53;5032495;28;20676;-68
2023/01/31 00:29:24;;;;;;;10.20;2.30;;;4.30;99.90;;;-141.84;72.92;19084.28;5042426;28;20731;-67
2023/01/31 00:31:52;;;;;;;10.07;2.03;;;4.30;99.90;;;-141.84;72.29;19084.28;5031738;28;20227;-69
2023/01/31 00:34:21;;;;;;;11.97;2.40;;;4.30;99.90;;;-141.84;72.57;19102.56;5032182;28;20581;-67
2023/01/31 00:36:50;;;;;;;10.20;2.13;;;4.30;99.90;;;-141.84;72.52;19094.44;5031901;28;20233;-60
2023/01/31 00:39:18;;;;;;;7.17;2.13;;;4.30;99.90;;;-141.84;72.04;19070.06;5035384;28;20227;-60
2023/01/31 00:41:46;;;;;;;9.53;1.87;;;4.30;99.90;;;-141.84;71.50;19096.47;5052295;28;20211;-60
2023/01/31 00:44:14;;;;;;;10.67;2.40;;;4.30;99.90;;;-141.84;71.23;19094.44;5051302;28;20221;-61
2023/01/31 00:46:43;;;;;;;7.43;1.87;;;4.30;99.90;;;-141.84;71.06;19110.72;5051390;28;20232;-61
2023/01/31 00:49:11;;;;;;;11.10;2.63;;;4.40;99.90;;;-141.84;70.58;19137.13;5051398;28;20644;-61
2023/01/31 00:51:39;;;;;;;8.37;2.27;;;4.40;99.90;;;-141.84;70.55;19112.75;5051320;28;20225;-61
2023/01/31 00:54:09;;;;;;;10.00;2.90;;;4.40;99.90;;;-141.84;70.67;19126.97;5051146;28;20696;-60
2023/01/31 00:56:37;;;;;;;12.23;2.10;;;4.40;99.90;;;-141.84;71.46;19096.47;5051741;28;20221;-61
2023/01/31 00:59:07;;;;;;;8.43;2.30;;;4.40;99.90;;;-141.84;71.36;19106.66;5050330;28;20723;-61
2023/01/31 01:01:36;;;;;;;8.20;1.93;;;4.20;99.90;;;-141.84;71.55;19094.44;5054179;28;20721;-60
2023/01/31 01:04:05;;;;;;;7.93;1.83;;;4.10;99.90;;;-141.84;71.97;19082.25;5071182;28;20315;-61
2023/01/31 01:06:34;;;;;;;7.77;2.10;;;4.10;99.90;;;-141.84;72.22;19082.25;5044740;28;20651;-61
2023/01/31 01:09:03;;;;;;;6.23;1.90;;;4.00;99.90;;;-141.84;71.83;19084.28;5031051;28;20272;-61
2023/01/31 01:11:35;;;;;;;4.93;1.80;;;3.90;99.90;;;-141.84;71.57;19112.75;5031743;28;20205;-61
2023/01/31 01:14:04;;;;;;;6.50;1.60;;;3.90;99.90;;;-141.84;71.87;19045.69;5030763;28;20234;-60
2023/01/31 01:16:35;;;;;;;7.47;2.40;;;3.80;99.90;;;-141.84;72.05;19088.34;5030668;28;20737;-62
2023/01/31 01:19:06;;;;;;;3.83;1.27;;;3.80;99.90;;;-141.84;72.11;19078.19;5031017;28;20225;-61
2023/01/31 01:21:37;;;;;;;5.40;2.03;;;3.80;99.90;;;-141.84;72.20;19057.88;5031252;28;20223;-60
2023/01/31 01:24:11;;;;;;;6.27;1.73;;;3.80;99.90;;;-141.84;72.58;19072.09;5033115;28;20285;-60
2023/01/31 01:26:41;;;;;;;8.03;1.77;;;3.80;99.90;;;-141.84;73.15;19057.88;5051372;28;20207;-60
2023/01/31 01:29:10;;;;;;;9.07;1.87;;;3.70;99.90;;;-141.84;73.09;19070.06;5048070;28;20783;-60
2023/01/31 01:31:39;;;;;;;9.10;2.17;;;3.80;99.90;;;-141.84;72.60;19072.09;5030491;28;20233;-61
2023/01/31 01:34:13;;;;;;;6.53;2.43;;;3.80;99.90;;;-141.84;73.01;19043.66;5030703;28;20375;-61
2023/01/31 01:36:42;;;;;;;6.93;2.03;;;3.80;99.90;;;-141.84;73.48;19084.28;5043451;28;20273;-60
2023/01/31 01:39:12;;;;;;;6.87;1.80;;;3.80;99.90;;;-141.84;73.22;19074.13;5050063;28;20233;-60
2023/01/31 01:41:42;;;;;;;10.43;2.23;;;3.80;99.90;;;-141.84;72.94;19084.28;5051046;28;20275;-60
2023/01/31 01:44:51;;;;;;;9.90;2.40;;;3.80;99.90;;;-141.84;73.20;19072.09;5050546;28;20232;-60
2023/01/31 01:47:37;;;;;;;6.60;1.63;;;3.80;99.90;;;-141.84;73.15;19033.50;5050459;28;20240;-60
2023/01/31 01:50:15;;;;;;;8.90;1.73;;;3.80;99.90;;;-141.84;73.12;19068.03;5049397;28;20240;-60
2023/01/31 01:52:50;;;;;;;6.20;2.00;;;3.80;99.90;;;-141.84;73.51;19082.25;5030542;28;20223;-60
2023/01/31 01:55:26;;;;;;;7.00;1.93;;;3.80;99.90;;;-141.84;73.33;19029.44;5030237;28;20228;-60
2023/01/31 01:58:03;;;;;;;7.80;1.87;;;3.80;99.90;;;-141.84;72.36;19106.66;5030289;28;20622;-60
2023/01/31 02:00:33;;;;;;;6.30;1.77;;;3.80;99.90;;;-141.84;71.80;19088.34;5030454;28;20239;-59
2023/01/31 02:03:06;;;;;;;7.70;2.20;;;4.00;99.90;;;-141.84;72.34;19076.16;5030402;28;20276;-60
2023/01/31 02:05:43;;;;;;;6.17;1.90;;;3.90;99.90;;;-141.84;72.82;19072.09;5031269;28;20193;-60
2023/01/31 02:08:12;;;;;;;6.83;1.77;;;4.00;99.90;;;-141.84;73.50;19074.13;5029975;28;20236;-60
2023/01/31 02:10:49;;;;;;;5.73;2.00;;;3.90;99.90;;;-141.84;73.75;19090.38;5029444;28;20231;-60
2023/01/31 02:13:21;;;;;;;7.13;1.97;;;4.00;99.90;;;-141.84;73.99;19015.19;5029985;28;20236;-61
2023/01/31 02:15:49;;;;;;;8.73;2.03;;;4.00;99.90;;;-141.84;73.83;19045.69;5029643;28;20247;-60
2023/01/31 02:18:23;;;;;;;7.07;1.83;;;4.00;99.90;;;-141.84;74.56;19074.13;5030252;28;20205;-60
2023/01/31 02:21:32;;;;;;;7.87;2.40;;;3.90;99.90;;;-141.84;75.09;19051.78;5036808;28;20204;-61
2023/01/31 02:24:54;;;;;;;8.60;1.70;;;4.00;99.90;;;-141.84;75.74;19031.47;5049936;28;20228;-59
2023/01/31 02:28:11;;;;;;;4.37;1.47;;;3.90;99.90;;;-141.84;74.48;19053.81;5007511;28;20235;-60
2023/01/31 02:31:27;;;;;;;6.33;1.73;;;4.00;99.90;;;-141.84;75.33;19070.06;5034723;28;20255;-60
2023/01/31 02:34:09;;;;;;;6.47;2.07;;;4.00;99.90;;;-141.84;75.17;19021.31;5029834;28;20226;-60
2023/01/31 02:36:54;;;;;;;5.33;1.20;;;3.90;99.90;;;-141.84;74.77;19041.63;5029858;28;20227;-60
2023/01/31 02:39:33;;;;;;;5.50;1.70;;;3.90;99.90;;;-141.84;73.22;19078.19;5035375;28;20609;-61
2023/01/31 02:42:15;;;;;;;4.80;1.37;;;4.10;99.90;;;-141.84;72.83;19078.19;5049782;28;20275;-61
2023/01/31 02:45:01;;;;;;;5.33;1.20;;;4.10;99.90;;;-141.84;72.57;19070.06;5050186;28;20285;-59
2023/01/31 02:47:46;;;;;;;5.60;2.03;;;4.10;99.90;;;-141.84;72.57;19114.78;5049818;28;20289;-62
2023/01/31 02:50:26;;;;;;;7.13;1.80;;;4.10;99.90;;;-141.84;73.11;19043.66;5047590;28;20235;-60
2023/01/31 02:53:03;;;;;;;4.20;1.63;;;4.10;99.90;;;-141.84;72.78;19080.22;5029429;28;20236;-60
2023/01/31 02:58:31;;;;;;;5.50;1.40;;;4.00;99.90;;;-141.84;72.31;19094.44;5037100;28;20232;-60
2023/01/31 03:01:04;;;;;;;5.00;1.60;;;4.00;99.90;;;-141.84;72.55;19086.31;5049264;28;20257;-62
2023/01/31 03:03:36;;;;;;;4.80;1.57;;;4.00;99.90;;;-141.84;72.62;19066.00;5068852;28;20309;-60
2023/01/31 03:07:00;;;;;;;9.83;2.03;;;4.00;99.90;;;-141.84;73.04;19084.28;5069319;28;20546;-62
2023/01/31 03:09:49;;;;;;;5.70;1.57;;;3.90;99.90;;;-141.84;73.22;19080.22;5069426;28;20257;-60
2023/01/31 03:12:36;;;;;;;9.67;2.03;;;4.00;99.90;;;-141.84;72.90;19110.72;5069350;28;20205;-59
2023/01/31 03:17:30;;;;;;;6.07;1.47;;;3.90;99.90;;;-141.84;72.50;19120.88;5069344;28;20232;-60
2023/01/31 03:18:27;;;;;;;8.20;1.90;;;4.00;99.90;;;-141.84;72.22;19057.88;5052931;28;20253;-60
2023/01/31 03:21:07;;;;;;;7.50;1.80;;;4.00;99.90;;;-141.84;72.64;19053.81;5049923;28;20191;-60
2023/01/31 03:23:40;;;;;;;4.07;1.47;;;4.00;99.90;;;-141.84;73.68;19039.59;5052765;28;20756;-60
2023/01/31 03:26:09;;;;;;;10.37;2.17;;;3.90;99.90;;;-141.84;73.00;19082.25;5053145;28;20748;-61
2023/01/31 03:28:41;;;;;;;5.30;1.63;;;4.00;99.90;;;-141.84;73.34;19088.34;5053269;28;20235;-60
2023/01/31 03:31:19;;;;;;;4.17;1.50;;;4.00;99.90;;;-141.84;73.30;19066.00;5052899;28;20228;-59
2023/01/31 03:33:52;;;;;;;8.37;2.07;;;3.90;99.90;;;-141.84;73.36;19074.13;5033251;28;20649;-60
2023/01/31 03:36:30;;;;;;;7.90;1.90;;;4.00;99.90;;;-141.84;72.64;19049.75;5032648;28;20229;-60
2023/01/31 03:39:22;;;;;;;4.67;1.70;;;3.90;99.90;;;-141.84;72.76;19057.88;5036063;28;20185;-61
2023/01/31 03:42:06;;;;;;;8.03;1.70;;;4.00;99.90;;;-141.84;72.85;19051.78;5053294;28;20224;-60
2023/01/31 03:44:46;;;;;;;8.63;1.80;;;3.90;99.90;;;-141.84;72.69;19088.34;5053507;28;20219;-60
2023/01/31 03:47:23;;;;;;;5.67;1.53;;;4.00;99.90;;;-141.84;73.31;19047.72;5052661;28;20240;-61
2023/01/31 03:49:54;;;;;;;7.37;1.70;;;3.90;99.90;;;-141.84;73.48;19051.78;5052709;28;20228;-60
2023/01/31 03:52:31;;;;;;;6.57;3.03;;;3.90;99.90;;;-141.84;72.62;19084.28;5052587;28;20233;-59
2023/01/31 03:55:09;;;;;;;7.10;2.30;;;4.00;99.90;;;-141.84;72.42;19102.56;5052484;28;20239;-61
2023/01/31 03:57:42;;;;;;;8.60;2.43;;;4.00;99.90;;;-141.84;72.85;19100.53;5052650;28;20960;-60
2023/01/31 04:00:15;;;;;;;8.60;2.10;;;4.00;99.90;;;-141.84;72.89;19086.31;5047585;28;20205;-61
2023/01/31 04:02:43;;;;;;;10.00;1.77;;;4.00;99.90;;;-141.84;72.25;19090.38;5060223;28;20226;-60
2023/01/31 04:05:18;;;;;;;7.70;2.30;;;4.00;99.90;;;-141.84;72.30;19092.41;5072696;28;20228;-61
2023/01/31 04:07:46;;;;;;;6.80;2.03;;;4.10;99.90;;;-141.84;72.74;19090.38;5072792;28;20237;-60
2023/01/31 04:10:19;;;;;;;9.00;2.40;;;4.10;99.90;;;-141.84;72.77;19094.44;5072772;28;20317;-60
2023/01/31 04:12:48;;;;;;;8.20;1.60;;;4.00;99.90;;;-141.84;72.67;19066.00;5071228;28;20222;-60
2023/01/31 04:15:16;;;;;;;10.67;2.43;;;4.00;99.90;;;-141.84;72.27;19074.13;5052097;28;20602;-60
2023/01/31 04:17:45;;;;;;;12.27;2.67;;;4.10;99.90;;;-141.84;72.18;19106.66;5052817;28;20217;-60
2023/01/31 04:20:14;;;;;;;8.13;2.27;;;4.10;99.90;;;-141.84;72.62;19059.91;5052574;28;20708;-68
2023/01/31 04:22:42;;;;;;;10.87;2.03;;;4.10;99.90;;;-141.84;73.08;19070.06;5052275;28;20239;-68
2023/01/31 04:25:11;;;;;;;8.17;1.90;;;4.10;99.90;;;-141.84;74.12;19053.81;5052045;28;20726;-69
2023/01/31 04:27:40;;;;;;;10.57;2.67;;;4.00;99.90;;;-141.84;75.26;19027.41;5050842;28;20234;-68
2023/01/31 04:30:10;;;;;;;6.07;1.70;;;4.00;99.90;;;-141.84;75.82;19053.81;5042803;28;20575;-69
2023/01/31 04:32:39;;;;;;;8.10;2.83;;;3.90;99.90;;;-141.84;75.24;19066.00;5052488;28;20203;-68
2023/01/31 04:35:08;;;;;;;8.10;2.03;;;3.90;99.90;;;-141.84;75.52;19049.75;5051072;28;20231;-69
2023/01/31 04:37:36;;;;;;;5.97;1.97;;;3.90;99.90;;;-141.84;75.84;19057.88;5051835;28;20233;-68
2023/01/31 04:40:05;;;;;;;7.03;1.80;;;3.80;99.90;;;-141.84;76.17;19043.66;5040410;28;20239;-69
2023/01/31 04:42:34;;;;;;;4.90;1.73;;;3.80;99.90;;;-141.84;76.63;19053.81;5032220;28;20228;-69
2023/01/31 04:45:04;;;;;;;7.17;1.70;;;3.80;99.90;;;-141.84;76.84;19033.50;5031632;28;20210;-68
2023/01/31 04:47:32;;;;;;;8.27;1.80;;;3.70;99.90;;;-141.84;77.17;19066.00;5032302;28;20179;-68
2023/01/31 04:50:01;;;;;;;7.53;1.87;;;3.60;99.90;;;-141.84;76.83;19021.31;5031882;28;20693;-68
2023/01/31 04:52:29;;;;;;;5.83;1.70;;;3.70;99.90;;;-141.84;76.75;19033.50;5031839;28;20229;-68
2023/01/31 04:54:57;;;;;;;4.37;1.63;;;3.70;99.90;;;-141.84;77.08;19015.19;5031714;28;20226;-68
2023/01/31 04:57:25;;;;;;;12.53;2.10;;;3.70;99.90;;;-141.84;76.97;19021.31;5031677;28;20230;-69
2023/01/31 04:59:53;;;;;;;7.63;1.90;;;3.70;99.90;;;-141.84;76.57;19076.16;5032390;28;20224;-69
2023/01/31 05:02:23;;;;;;;5.20;2.00;;;3.70;99.90;;;-141.84;76.91;19035.53;5050573;28;20216;-69
2023/01/31 05:04:51;;;;;;;4.77;1.60;;;3.70;99.90;;;-141.84;77.16;19025.38;5071654;28;20629;-69
2023/01/31 05:07:19;;;;;;;6.23;1.70;;;3.70;99.90;;;-141.84;77.31;19025.38;5071538;28;20258;-69
2023/01/31 05:09:47;;;;;;;6.27;1.80;;;3.60;99.90;;;-141.84;77.16;19068.03;5063847;28;20227;-69
2023/01/31 05:12:15;;;;;;;6.97;1.93;;;3.70;99.90;;;-141.84;77.05;19027.41;5051590;28;20581;-69
2023/01/31 05:14:44;;;;;;;4.17;1.63;;;3.70;99.90;;;-141.84;76.97;19041.63;5051490;28;20477;-69
2023/01/31 05:17:12;;;;;;;4.33;1.53;;;3.60;99.90;;;-141.84;77.00;19080.22;5050862;28;20223;-69
2023/01/31 05:19:42;;;;;;;7.87;2.37;;;3.60;99.90;;;-141.84;77.30;19019.28;5051148;28;20332;-69
2023/01/31 05:22:10;;;;;;;9.33;1.87;;;3.60;99.90;;;-141.84;77.07;19023.34;5051085;28;20229;-70
2023/01/31 05:24:38;;;;;;;8.20;2.00;;;3.60;99.90;;;-141.84;76.66;19037.56;5044816;28;20626;-69
2023/01/31 05:27:06;;;;;;;11.87;2.20;;;3.60;99.90;;;-141.84;76.60;19059.91;5032534;28;20200;-70
2023/01/31 05:29:35;;;;;;;6.73;1.80;;;3.60;99.90;;;-141.84;76.22;19015.19;5038552;28;20211;-70
2023/01/31 05:32:03;;;;;;;5.83;1.77;;;3.60;99.90;;;-141.84;77.01;19029.44;5051506;28;20235;-70
2023/01/31 05:34:32;;;;;;;6.00;2.37;;;3.50;99.90;;;-141.84;77.08;19037.56;5052159;28;20305;-68
2023/01/31 05:37:03;;;;;;;13.23;2.03;;;3.50;99.90;;;-141.84;76.94;19053.81;5052596;28;20231;-70
2023/01/31 05:39:31;;;;;;;7.60;2.17;;;3.60;99.90;;;-141.84;77.35;19015.19;5045230;28;20236;-68
2023/01/31 05:41:59;;;;;;;8.30;2.20;;;3.50;99.90;;;-141.84;76.44;19043.66;5031659;28;20209;-67
2023/01/31 05:44:28;;;;;;;7.70;2.47;;;3.60;99.90;;;-141.84;76.56;19029.44;5031916;28;20209;-68
2023/01/31 05:46:56;;;;;;;7.37;2.17;;;3.60;99.90;;;-141.84;76.67;19084.28;5036639;28;20220;-67
2023/01/31 05:49:24;;;;;;;8.43;2.10;;;3.60;99.90;;;-141.84;77.30;19009.09;5051077;28;20231;-69
2023/01/31 05:51:52;;;;;;;8.67;2.30;;;3.50;99.90;;;-141.84;77.20;19037.56;5050753;28;20230;-70
2023/01/31 05:54:21;;;;;;;7.43;4.20;;;3.50;99.90;;;-141.84;76.89;19053.81;5051081;28;20232;-69
2023/01/31 05:56:50;;;;;;;9.07;2.50;;;3.50;99.90;;;-141.84;77.45;19025.38;5051187;28;20475;-69
2023/01/31 05:59:18;;;;;;;6.83;1.73;;;3.50;99.90;;;-141.84;76.46;19059.91;5050703;28;20241;-68
2023/01/31 06:01:46;;;;;;;9.43;2.57;;;3.60;99.90;;;-141.84;76.78;19035.53;5055148;28;20229;-69
2023/01/31 06:04:14;;;;;;;10.70;2.20;;;3.50;99.90;;;-141.84;76.99;19017.25;5070489;28;20284;-69
2023/01/31 06:06:43;;;;;;;7.60;1.90;;;3.60;99.90;;;-141.84;76.37;19053.81;5070304;28;20742;-69
2023/01/31 06:09:11;;;;;;;7.50;2.17;;;3.60;99.90;;;-141.84;76.40;19013.16;5070536;28;20200;-68
2023/01/31 06:11:41;;;;;;;7.27;2.23;;;3.60;99.90;;;-141.84;76.67;19033.50;5070981;28;20701;-70
2023/01/31 06:14:12;;;;;;;8.07;2.20;;;3.70;99.90;;;-141.84;75.73;19057.88;5070381;28;20237;-68
2023/01/31 06:16:40;;;;;;;4.50;1.37;;;3.70;99.90;;;-141.84;75.49;19045.69;5068120;28;20269;-69
2023/01/31 06:19:08;;;;;;;4.77;1.50;;;3.80;99.90;;;-141.84;75.59;19047.72;5049815;28;20236;-68
2023/01/31 06:21:37;;;;;;;6.20;2.30;;;3.80;99.90;;;-141.84;76.09;19021.31;5050227;28;20235;-67
2023/01/31 06:24:06;;;;;;;8.03;2.00;;;3.80;99.90;;;-141.84;76.11;19041.63;5050298;28;20278;-68
2023/01/31 06:26:34;;;;;;;8.13;2.20;;;3.80;99.90;;;-141.84;76.18;19009.09;5050897;28;20200;-68
2023/01/31 06:29:04;;;;;;;7.63;1.50;;;3.80;99.90;;;-141.84;75.60;19000.97;5049717;28;20650;-69
2023/01/31 06:31:32;;;;;;;5.87;1.77;;;3.80;99.90;;;-141.84;75.80;19066.00;5049620;28;20254;-69
2023/01/31 06:34:00;;;;;;;3.80;2.00;;;3.80;99.90;;;-141.84;74.74;19035.53;5050745;28;20230;-67
2023/01/31 06:36:28;;;;;;;10.97;2.00;;;3.90;99.90;;;-141.84;73.96;19051.78;5050352;28;20227;-68
2023/01/31 06:38:57;;;;;;;9.07;1.60;;;4.10;99.90;;;-141.84;74.29;19080.22;5047828;28;20369;-67
2023/01/31 06:41:25;;;;;;;8.40;1.80;;;4.00;99.90;;;-141.84;74.29;19049.75;5029807;28;20617;-68
2023/01/31 06:43:54;;;;;;;7.97;1.97;;;4.00;99.90;;;-141.84;75.02;19033.50;5041198;28;20230;-68
2023/01/31 06:46:24;;;;;;;9.70;2.40;;;3.90;99.90;;;-141.84;75.17;19041.63;5049338;28;20692;-69
2023/01/31 06:48:53;;;;;;;5.40;2.30;;;3.90;99.90;;;-141.84;75.41;19023.34;5049774;28;20223;-68
2023/01/31 06:51:21;;;;;;;6.17;1.70;;;3.90;99.90;;;-141.84;75.33;19025.38;5048968;28;20597;-68
2023/01/31 06:53:51;;;;;;;8.87;1.97;;;3.90;99.90;;;-141.84;75.24;19090.38;5050136;28;20205;-68
2023/01/31 06:56:20;;;;;;;8.87;1.83;;;3.90;99.90;;;-141.84;74.93;19041.63;5049346;28;20646;-68
2023/01/31 06:58:48;;;;;;;7.97;2.20;;;3.90;99.90;;;-141.84;74.53;19074.13;5052811;28;20240;-68
2023/01/31 07:01:17;;;;;;;6.53;1.40;;;3.90;99.90;;;-141.84;73.76;19078.19;5034657;28;20742;-68
2023/01/31 07:03:47;;;;;;;7.53;2.37;;;3.90;99.90;;;-141.84;73.96;19037.56;5073616;28;20310;-68
2023/01/31 07:06:18;;;;;;;8.10;2.30;;;3.90;99.90;;;-141.84;73.08;19049.75;5073613;28;20466;-67
2023/01/31 07:08:47;;;;;;;4.87;1.47;;;4.00;99.90;;;-141.84;71.91;19094.44;5074313;28;20189;-68
2023/01/31 07:11:15;;;;;;;7.03;1.90;;;4.10;99.90;;;-141.84;72.26;19092.41;5073539;28;20230;-68
2023/01/31 07:13:45;;;;;;;9.07;1.83;;;4.10;99.90;;;-141.84;72.23;19072.09;5064420;28;20649;-68
2023/01/31 07:16:13;;;;;;;7.63;1.77;;;4.00;99.90;;;-141.84;71.25;19074.13;5053289;28;20736;-66
2023/01/31 07:18:41;;;;;;;8.27;1.90;;;4.10;99.90;;;-141.84;72.03;19090.38;5033440;28;20237;-71
2023/01/31 07:21:10;;;;;;;7.30;2.03;;;4.10;99.90;;;-141.84;70.76;19078.19;5033449;28;20212;-69
2023/01/31 07:23:39;;;;;;;8.00;2.17;;;4.10;99.90;;;-141.84;70.83;19106.66;5034154;28;20212;-69
2023/01/31 07:26:07;;;;;;;6.77;1.63;;;4.20;99.90;;;-141.84;70.06;19076.16;5033556;28;20728;-70
2023/01/31 07:28:35;;;;;;;7.57;1.63;;;4.20;99.90;;;-141.84;70.35;19059.91;5033223;28;20233;-70
2023/01/31 07:31:09;;;;;;;7.17;2.10;;;4.20;99.90;;;-141.84;70.54;19110.72;5033117;28;20241;-71
2023/01/31 07:33:38;;;;;;;8.80;2.70;;;4.20;99.90;;;-141.84;70.13;19102.56;5033258;28;20696;-70
2023/01/31 07:36:12;;;;;;;8.47;1.63;;;4.20;99.90;;;-141.84;69.79;19055.84;5033302;28;20202;-68
2023/01/31 07:38:41;;;;;;;6.60;1.67;;;4.10;99.90;;;-141.84;69.99;19074.13;5033706;28;20198;-69
2023/01/31 07:41:11;;;;;;;4.70;1.50;;;4.10;99.90;;;-141.84;69.96;19090.38;5033058;28;20277;-70
2023/01/31 07:43:39;;;;;;;5.50;1.40;;;4.00;99.90;;;-141.84;70.18;19084.28;5033293;28;20230;-69
2023/01/31 07:46:11;;;;;;;5.80;1.70;;;4.00;99.90;;;-141.84;70.15;19066.00;5032807;28;20243;-71
2023/01/31 07:48:39;;;;;;;5.50;1.70;;;4.00;99.90;;;-141.84;69.54;19086.31;5052905;28;20304;-70
2023/01/31 07:51:08;;;;;;;4.33;2.10;;;4.00;99.90;;;-141.84;69.42;19090.38;5052990;28;20219;-69
2023/01/31 07:53:41;;;;;;;3.87;1.43;;;4.00;99.90;;;-141.84;69.71;19098.50;5053443;28;20304;-69
2023/01/31 07:56:12;;;;;;;7.37;1.90;;;4.10;99.90;;;-141.84;69.24;19102.56;5053128;28;20689;-68
2023/01/31 07:58:43;;;;;;;6.37;2.10;;;4.10;99.90;;;-141.84;69.75;19084.28;5052994;28;20257;-69
2023/01/31 08:04:02;;;;;;;5.73;1.90;;;4.30;99.90;;;-141.84;68.06;19092.41;5033046;28;20303;-69
2023/01/31 08:06:47;;;;;;;7.93;2.27;;;4.30;99.90;;;-141.84;67.89;19167.59;5032895;28;20236;-69
2023/01/31 08:09:17;;;;;;;7.23;2.00;;;4.50;99.90;;;-141.84;67.94;19116.81;5032931;28;20202;-69
2023/01/31 08:11:45;;;;;;;8.63;2.00;;;4.50;99.90;;;-141.84;67.29;19163.53;5032964;28;20553;-69
2023/01/31 08:14:13;;;;;;;5.50;2.00;;;4.50;99.90;;;-141.84;67.66;19159.47;5045306;28;20238;-68
2023/01/31 08:16:41;;;;;;;6.37;1.90;;;4.40;99.90;;;-141.84;67.73;19157.44;5052439;28;20237;-70
2023/01/31 08:19:09;;;;;;;4.97;2.00;;;4.40;99.90;;;-141.84;67.96;19143.22;5052819;28;20581;-69
2023/01/31 08:21:38;;;;;;;6.07;2.13;;;4.50;99.90;;;-141.84;67.65;19157.44;5052813;28;20239;-68
2023/01/31 08:24:07;;;;;;;6.53;2.20;;;4.50;99.90;;;-141.84;67.91;19149.31;5052719;28;20196;-69
2023/01/31 08:26:36;;;;;;;9.13;2.67;;;4.50;99.90;;;-141.84;68.03;19143.22;5053276;28;20205;-69
2023/01/31 08:29:05;;;;;;;6.43;1.87;;;4.50;99.90;;;-141.84;67.47;19159.47;5050768;28;20723;-68
2023/01/31 08:31:33;;;;;;;4.47;1.87;;;4.60;99.90;;;-141.84;67.91;19167.59;5032201;28;20255;-70
2023/01/31 08:34:02;;;;;;;6.63;2.23;;;4.70;99.90;;;-141.84;67.43;19131.03;5032725;28;20452;-70
2023/01/31 08:36:31;;;;;;;5.27;2.03;;;4.70;99.90;;;-141.84;67.77;19167.59;5044924;28;20231;-70
2023/01/31 08:39:00;;;;;;;3.97;1.80;;;4.60;99.90;;;-141.84;67.45;19153.38;5050088;28;20200;-69
2023/01/31 08:41:32;;;;;;;8.33;2.23;;;4.70;99.90;;;-141.84;67.36;19189.97;5032764;28;20209;-69
2023/01/31 08:44:02;;;;;;;5.33;2.03;;;4.70;99.90;;;-141.84;67.29;19126.97;5033034;28;20713;-69
2023/01/31 08:46:34;;;;;;;8.33;2.37;;;4.70;99.90;;;-141.84;67.86;19143.22;5032114;28;20246;-69
2023/01/31 08:49:06;;;;;;;7.00;2.03;;;4.70;99.90;;;-141.84;67.46;19159.47;5032993;28;20233;-68
2023/01/31 08:51:34;;;;;;;6.33;1.60;;;4.70;99.90;;;-141.84;67.29;19192.00;5045436;28;20281;-68
2023/01/31 08:54:02;;;;;;;5.83;2.10;;;4.70;99.90;;;-141.84;67.10;19135.09;5052377;28;20219;-69
2023/01/31 08:56:30;;;;;;;9.03;2.10;;;4.80;99.90;;;-141.84;67.29;19131.03;5052268;28;20197;-69
2023/01/31 08:59:00;;;;;;;6.20;2.20;;;4.80;99.90;;;-141.84;67.40;19153.38;5051963;28;20224;-69
2023/01/31 09:01:28;;;;;;;8.77;2.50;;;4.70;99.90;;;-141.84;67.54;19157.44;5053744;28;20266;-69
2023/01/31 09:03:57;;;;;;;5.20;2.50;;;4.70;99.90;;;-141.84;67.35;19171.66;5072416;28;20235;-68
2023/01/31 09:06:27;;;;;;;5.43;2.00;;;4.80;99.90;;;-141.84;67.46;19187.91;5071265;28;20232;-69
2023/01/31 09:08:57;;;;;;;9.37;2.80;;;4.80;99.90;;;-141.84;67.52;19118.84;5069421;28;20188;-70
2023/01/31 09:11:29;;;;;;;7.47;2.13;;;4.90;99.90;;;-141.84;67.29;19196.06;5031966;28;20220;-69
2023/01/31 09:13:58;;;;;;;6.80;2.50;;;4.90;99.90;;;-141.84;66.89;19169.63;5042202;28;20283;-69
2023/01/31 09:16:27;;;;;;;7.00;2.00;;;5.00;99.90;;;-141.84;65.75;19208.25;5050827;28;20233;-69
2023/01/31 09:18:57;;;;;;;6.13;2.00;;;5.00;99.90;;;-141.84;65.60;19210.28;5051756;28;20228;-70
2023/01/31 09:21:26;;;;;;;8.17;2.13;;;5.10;99.90;;;-141.84;66.52;19179.78;5050984;28;20236;-70
2023/01/31 09:23:57;;;;;;;6.47;1.87;;;5.10;99.90;;;-141.84;65.28;19214.34;5052125;28;20202;-69
2023/01/31 09:26:26;;;;;;;8.73;2.53;;;5.10;99.90;;;-141.84;65.39;19220.44;5051826;28;20210;-69
2023/01/31 09:28:54;;;;;;;8.33;2.43;;;5.10;99.90;;;-141.84;65.86;19169.63;5051231;28;20785;-71
2023/01/31 09:31:23;;;;;;;7.43;2.07;;;5.10;99.90;;;-141.84;65.37;19216.38;5032081;28;20670;-69
2023/01/31 09:33:53;;;;;;;4.77;2.00;;;5.20;99.90;;;-141.84;65.43;19206.22;5051191;28;20577;-69
2023/01/31 09:36:24;;;;;;;5.10;1.93;;;5.20;99.90;;;-141.84;65.80;19189.97;5051277;28;20978;-68
2023/01/31 09:38:55;;;;;;;4.43;1.77;;;5.20;99.90;;;-141.84;65.46;19216.38;5050068;28;20660;-69
2023/01/31 09:41:32;;;;;;;6.03;1.97;;;5.20;99.90;;;-141.84;64.80;19210.28;5031036;28;20229;-70
2023/01/31 09:44:06;;;;;;;9.80;1.87;;;5.30;99.90;;;-141.84;64.83;19192.00;5031024;28;20230;-69
2023/01/31 09:46:40;;;;;;;5.00;2.00;;;5.30;99.90;;;-141.84;64.60;19210.28;5030847;28;20233;-69
2023/01/31 09:49:20;;;;;;;5.40;1.80;;;5.30;99.90;;;-141.84;64.60;19218.41;5031358;28;20709;-69
2023/01/31 09:51:55;;;;;;;8.40;2.13;;;5.40;99.90;;;-141.84;64.39;19248.88;5046122;28;20223;-69
2023/01/31 09:54:30;;;;;;;5.23;2.10;;;5.40;99.90;;;-141.84;64.22;19254.97;5051062;28;20559;-69
2023/01/31 09:57:18;;;;;;;7.70;2.40;;;5.50;99.90;;;-141.84;63.35;19238.72;5051326;28;20209;-70
2023/01/31 09:59:59;;;;;;;5.47;2.27;;;5.60;99.90;;;-141.84;62.89;19267.16;5050936;28;20229;-69
2023/01/31 10:02:53;;;;;;;6.93;2.40;;;5.70;99.90;;;-141.84;62.88;19228.56;5060997;28;20213;-69
2023/01/31 10:05:37;;;;;;;7.33;2.20;;;5.80;99.90;;;-141.84;63.05;19289.53;5064899;28;20225;-69
2023/01/31 10:08:17;;;;;;;4.77;2.00;;;5.70;99.90;;;-141.84;62.72;19267.16;5030653;28;20230;-69
2023/01/31 10:10:51;;;;;;;4.50;1.90;;;5.70;99.90;;;-141.84;62.98;19246.84;5045965;28;20744;-69
2023/01/31 10:13:30;;;;;;;6.43;2.40;;;5.80;99.90;;;-141.84;63.03;19254.97;5050349;28;20736;-70
2023/01/31 10:16:06;;;;;;;6.80;2.30;;;5.70;99.90;;;-141.84;62.79;19265.13;5049993;28;20410;-69
2023/01/31 10:18:40;;;;;;;4.00;1.93;;;5.80;99.90;;;-141.84;62.21;19242.78;5050343;28;20232;-68
2023/01/31 10:21:18;;;;;;;8.47;2.47;;;5.90;99.90;;;-141.84;61.95;19289.53;5050242;28;20209;-69
2023/01/31 10:23:54;;;;;;;8.63;2.60;;;5.90;99.90;;;-141.84;62.35;19277.34;5050796;28;20189;-70
2023/01/31 10:26:28;;;;;;;8.10;2.33;;;5.90;99.90;;;-141.84;62.09;19273.28;5050182;28;20224;-69
2023/01/31 10:29:05;;;;;;;7.97;2.23;;;5.90;99.90;;;-141.84;62.74;19289.53;5049908;28;20221;-69
2023/01/31 10:31:41;;;;;;;6.20;2.13;;;5.90;99.90;;;-141.84;61.74;19281.41;5049145;28;20229;-70
2023/01/31 10:34:17;;;;;;;7.07;2.30;;;6.00;99.90;;;-141.84;61.87;19279.38;5050160;28;20228;-70
2023/01/31 10:36:56;;;;;;;7.53;2.53;;;6.00;99.90;;;-141.84;61.92;19291.56;5035415;28;20224;-68
2023/01/31 10:39:31;;;;;;;9.57;2.43;;;6.00;99.90;;;-141.84;61.69;19309.84;5030363;28;20235;-69
2023/01/31 10:42:20;;;;;;;5.87;2.37;;;6.10;99.90;;;-141.84;61.70;19269.22;5029892;28;20232;-69